Airfield :
LOGIN :

Register | Disclaimer

   EN    FR    IT 

 










Legend :    VFR   Marginal VFR   IFR   Intensive IFR   Very Intensive IFR
Visi :
Ceiling :
>= 8 km
>= 3000ft
5 to 8 km
1000 to 3000 ft
1500m to 5 km
500 to 1000 ft
800 to 1500m
200 to 500 ft
< 800m
< 200 ft
Symbols :   Thunderstorms  Fog  Heavy snow  Heavy precipitations  Wind > 20 kt
SIGMETs :     Misc.  Thunderstorms  Icing  Turbulence  Mountain Waves  Volcanic Ashes







- Airport Elevation : 1989 ft
- IATA code : KLV


LKKV - Karlovy Vary

CURRENT METAR :
  • 201430Z 26007KT 210V290 9999 SCT048 24/13 Q1013

EXPIRED METARs :
  • 201400Z 26009KT 210V290 9999 SCT048 24/12 Q1013
  • 201330Z 26010KT 210V290 9999 SCT047 24/13 Q1013
  • 201300Z 26007KT 180V300 CAVOK 24/13 Q1013
  • 201230Z 25007KT 180V290 9999 FEW040 23/13 Q1014

TAF TAF LKKV
Valid from the 20 at 12:00 until the 21 at 18:00 UTC


201100Z 2012/2118 26009KT CAVOK
TEMPO 2012/2021 7000 SHRA SCT030TCU
PROB30
TEMPO 2012/2021 34012G30KT 4000 TSRA SCT026CB
PROB30
TEMPO 2110/2118 6000 TSRA SCT026CB
No reported NOTAMs for that airfield.
1 SIGMET reported for the Praha FIR (LKAA) :
 
Squall lined thunderstorms
LKAA SIGMET 2 VALID 201445/201645 LKPW
LKAA PRAHA FIR SQL TS OBS APRX 60KM WID LINE BTN N5025 E01639 - N5015 E01624 - N4851 E01606 TOP FL400 MOV NE NC=



MET'MAP, your aeronautical weather chart ! - Copyright ORBIFLY December 2007 - Disclaimer

ORBIFLY MET'MAP TEAM :

Programming & Development : Alexandra Zaïnal
Concept & Development : Baudouin d'Aumeries
Co-Development & Prog : Marc-Olivier Méhu
Technical & hardware support : Manuel Goepfert

Contact : metmap@orbifly.com




SOURCES & CREDITS :

   NOAA